sensor_id;sensor_type;location;lat;lon;timestamp;temperature;humidity
57434;DHT22;43277;52.672;6.984;2022-07-06T00:01:19;13.50;99.90
57434;DHT22;43277;52.672;6.984;2022-07-06T00:03:44;13.50;99.90
57434;DHT22;43277;52.672;6.984;2022-07-06T00:06:10;13.40;99.90
57434;DHT22;43277;52.672;6.984;2022-07-06T00:08:36;13.30;99.90
57434;DHT22;43277;52.672;6.984;2022-07-06T00:11:02;13.30;99.90
57434;DHT22;43277;52.672;6.984;2022-07-06T00:13:27;13.30;99.90
57434;DHT22;43277;52.672;6.984;2022-07-06T00:15:53;13.20;99.90
57434;DHT22;43277;52.672;6.984;2022-07-06T00:18:19;13.30;99.90
57434;DHT22;43277;52.672;6.984;2022-07-06T00:20:45;13.20;99.90
57434;DHT22;43277;52.672;6.984;2022-07-06T00:23:11;13.20;99.90
57434;DHT22;43277;52.672;6.984;2022-07-06T00:25:36;13.10;99.90
57434;DHT22;43277;52.672;6.984;2022-07-06T00:28:02;13.10;99.90
57434;DHT22;43277;52.672;6.984;2022-07-06T00:30:28;13.10;99.90
57434;DHT22;43277;52.672;6.984;2022-07-06T00:32:53;13.00;99.90
57434;DHT22;43277;52.672;6.984;2022-07-06T00:35:19;13.00;99.90
57434;DHT22;43277;52.672;6.984;2022-07-06T00:37:45;13.00;99.90
57434;DHT22;43277;52.672;6.984;2022-07-06T00:40:10;13.00;99.90
57434;DHT22;43277;52.672;6.984;2022-07-06T00:42:44;13.00;99.90
57434;DHT22;43277;52.672;6.984;2022-07-06T00:45:10;13.00;99.90
57434;DHT22;43277;52.672;6.984;2022-07-06T00:47:37;13.00;99.90
57434;DHT22;43277;52.672;6.984;2022-07-06T00:50:04;13.00;99.90
57434;DHT22;43277;52.672;6.984;2022-07-06T00:52:43;13.00;99.90
57434;DHT22;43277;52.672;6.984;2022-07-06T00:55:09;13.00;99.90
57434;DHT22;43277;52.672;6.984;2022-07-06T00:57:36;13.00;99.90
57434;DHT22;43277;52.672;6.984;2022-07-06T01:00:03;13.00;99.90
57434;DHT22;43277;52.672;6.984;2022-07-06T01:02:33;13.00;99.90
57434;DHT22;43277;52.672;6.984;2022-07-06T01:04:59;13.10;99.90
57434;DHT22;43277;52.672;6.984;2022-07-06T01:07:25;13.00;99.90
57434;DHT22;43277;52.672;6.984;2022-07-06T01:09:51;13.10;99.90
57434;DHT22;43277;52.672;6.984;2022-07-06T01:12:17;13.20;99.90
57434;DHT22;43277;52.672;6.984;2022-07-06T01:14:43;13.20;99.90
57434;DHT22;43277;52.672;6.984;2022-07-06T01:17:10;13.20;99.90
57434;DHT22;43277;52.672;6.984;2022-07-06T01:19:36;13.20;99.90
57434;DHT22;43277;52.672;6.984;2022-07-06T01:22:01;13.30;99.90
57434;DHT22;43277;52.672;6.984;2022-07-06T01:24:27;13.20;99.90
57434;DHT22;43277;52.672;6.984;2022-07-06T01:26:53;13.20;99.90
57434;DHT22;43277;52.672;6.984;2022-07-06T01:29:19;13.20;99.90
57434;DHT22;43277;52.672;6.984;2022-07-06T01:31:48;13.20;99.90
57434;DHT22;43277;52.672;6.984;2022-07-06T01:34:16;13.20;99.90
57434;DHT22;43277;52.672;6.984;2022-07-06T01:36:42;13.20;99.90
57434;DHT22;43277;52.672;6.984;2022-07-06T01:39:08;13.20;99.90
57434;DHT22;43277;52.672;6.984;2022-07-06T01:41:34;13.20;99.90
57434;DHT22;43277;52.672;6.984;2022-07-06T01:44:00;13.30;99.90
57434;DHT22;43277;52.672;6.984;2022-07-06T01:46:25;13.30;99.90
57434;DHT22;43277;52.672;6.984;2022-07-06T01:48:51;13.30;99.90
57434;DHT22;43277;52.672;6.984;2022-07-06T01:51:16;13.20;99.90
57434;DHT22;43277;52.672;6.984;2022-07-06T01:53:42;13.30;99.90
57434;DHT22;43277;52.672;6.984;2022-07-06T01:56:08;13.20;99.90
57434;DHT22;43277;52.672;6.984;2022-07-06T01:58:35;13.20;99.90
57434;DHT22;43277;52.672;6.984;2022-07-06T02:01:04;13.20;99.90
57434;DHT22;43277;52.672;6.984;2022-07-06T02:03:31;13.20;99.90
57434;DHT22;43277;52.672;6.984;2022-07-06T02:05:57;13.20;99.90
57434;DHT22;43277;52.672;6.984;2022-07-06T02:08:22;13.20;99.90
57434;DHT22;43277;52.672;6.984;2022-07-06T02:10:48;13.10;99.90
57434;DHT22;43277;52.672;6.984;2022-07-06T02:13:13;13.10;99.90
57434;DHT22;43277;52.672;6.984;2022-07-06T02:15:39;13.20;99.90
57434;DHT22;43277;52.672;6.984;2022-07-06T02:18:05;13.20;99.90
57434;DHT22;43277;52.672;6.984;2022-07-06T02:20:30;13.20;99.90
57434;DHT22;43277;52.672;6.984;2022-07-06T02:22:56;13.20;99.90
57434;DHT22;43277;52.672;6.984;2022-07-06T02:25:22;13.20;99.90
57434;DHT22;43277;52.672;6.984;2022-07-06T02:27:47;13.20;99.90
57434;DHT22;43277;52.672;6.984;2022-07-06T02:30:13;13.20;99.90
57434;DHT22;43277;52.672;6.984;2022-07-06T02:32:38;13.20;99.90
57434;DHT22;43277;52.672;6.984;2022-07-06T02:35:04;13.20;99.90
57434;DHT22;43277;52.672;6.984;2022-07-06T02:37:30;13.20;99.90
57434;DHT22;43277;52.672;6.984;2022-07-06T02:39:55;13.20;99.90
57434;DHT22;43277;52.672;6.984;2022-07-06T02:42:21;13.20;99.90
57434;DHT22;43277;52.672;6.984;2022-07-06T02:44:46;13.20;99.90
57434;DHT22;43277;52.672;6.984;2022-07-06T02:47:12;13.20;99.90
57434;DHT22;43277;52.672;6.984;2022-07-06T02:49:37;13.20;99.90
57434;DHT22;43277;52.672;6.984;2022-07-06T02:52:03;13.30;99.90
57434;DHT22;43277;52.672;6.984;2022-07-06T02:54:29;13.30;99.90
57434;DHT22;43277;52.672;6.984;2022-07-06T02:56:54;13.30;99.90
57434;DHT22;43277;52.672;6.984;2022-07-06T02:59:20;13.30;99.90
57434;DHT22;43277;52.672;6.984;2022-07-06T03:01:46;13.30;99.90
57434;DHT22;43277;52.672;6.984;2022-07-06T03:04:11;13.40;99.90
57434;DHT22;43277;52.672;6.984;2022-07-06T03:06:37;13.40;99.90
57434;DHT22;43277;52.672;6.984;2022-07-06T03:09:03;13.30;99.90
57434;DHT22;43277;52.672;6.984;2022-07-06T03:11:28;13.30;99.90
57434;DHT22;43277;52.672;6.984;2022-07-06T03:13:54;13.30;99.90
57434;DHT22;43277;52.672;6.984;2022-07-06T03:16:19;13.30;99.90
57434;DHT22;43277;52.672;6.984;2022-07-06T03:18:45;13.20;99.90
57434;DHT22;43277;52.672;6.984;2022-07-06T03:21:11;13.30;99.90
57434;DHT22;43277;52.672;6.984;2022-07-06T03:23:36;13.20;99.90
57434;DHT22;43277;52.672;6.984;2022-07-06T03:26:02;13.30;99.90
57434;DHT22;43277;52.672;6.984;2022-07-06T03:28:27;13.30;99.90
57434;DHT22;43277;52.672;6.984;2022-07-06T03:30:53;13.30;99.90
57434;DHT22;43277;52.672;6.984;2022-07-06T03:33:19;13.20;99.90
57434;DHT22;43277;52.672;6.984;2022-07-06T03:35:45;13.20;99.90
57434;DHT22;43277;52.672;6.984;2022-07-06T03:38:10;13.10;99.90
57434;DHT22;43277;52.672;6.984;2022-07-06T03:40:36;13.10;99.90
57434;DHT22;43277;52.672;6.984;2022-07-06T03:43:01;13.20;99.90
57434;DHT22;43277;52.672;6.984;2022-07-06T03:45:27;13.10;99.90
57434;DHT22;43277;52.672;6.984;2022-07-06T03:47:53;13.10;99.90
57434;DHT22;43277;52.672;6.984;2022-07-06T03:50:18;13.10;99.90
57434;DHT22;43277;52.672;6.984;2022-07-06T03:52:44;13.10;99.90
57434;DHT22;43277;52.672;6.984;2022-07-06T03:55:11;13.10;99.90
57434;DHT22;43277;52.672;6.984;2022-07-06T03:57:37;13.10;99.90
57434;DHT22;43277;52.672;6.984;2022-07-06T04:00:04;13.10;99.90
57434;DHT22;43277;52.672;6.984;2022-07-06T04:02:30;13.10;99.90
57434;DHT22;43277;52.672;6.984;2022-07-06T04:04:56;13.10;99.90
57434;DHT22;43277;52.672;6.984;2022-07-06T04:07:21;13.10;99.90
57434;DHT22;43277;52.672;6.984;2022-07-06T04:09:47;13.10;99.90
57434;DHT22;43277;52.672;6.984;2022-07-06T04:12:13;13.10;99.90
57434;DHT22;43277;52.672;6.984;2022-07-06T04:14:38;13.10;99.90
57434;DHT22;43277;52.672;6.984;2022-07-06T04:17:04;13.20;99.90
57434;DHT22;43277;52.672;6.984;2022-07-06T04:19:50;13.10;99.90
57434;DHT22;43277;52.672;6.984;2022-07-06T04:22:15;13.10;99.90
57434;DHT22;43277;52.672;6.984;2022-07-06T04:24:41;13.20;99.90
57434;DHT22;43277;52.672;6.984;2022-07-06T04:27:07;13.10;99.90
57434;DHT22;43277;52.672;6.984;2022-07-06T04:29:32;13.20;99.90
57434;DHT22;43277;52.672;6.984;2022-07-06T04:31:58;13.30;99.90
57434;DHT22;43277;52.672;6.984;2022-07-06T04:34:23;13.30;99.90
57434;DHT22;43277;52.672;6.984;2022-07-06T04:36:49;13.30;99.90
57434;DHT22;43277;52.672;6.984;2022-07-06T04:39:14;13.40;99.90
57434;DHT22;43277;52.672;6.984;2022-07-06T04:41:40;13.40;99.90
57434;DHT22;43277;52.672;6.984;2022-07-06T04:44:05;13.50;99.90
57434;DHT22;43277;52.672;6.984;2022-07-06T04:46:31;13.50;99.90
57434;DHT22;43277;52.672;6.984;2022-07-06T04:48:57;13.50;99.90
57434;DHT22;43277;52.672;6.984;2022-07-06T04:51:22;13.60;99.90
57434;DHT22;43277;52.672;6.984;2022-07-06T04:53:48;13.50;99.90
57434;DHT22;43277;52.672;6.984;2022-07-06T04:56:13;13.60;99.90
57434;DHT22;43277;52.672;6.984;2022-07-06T04:58:39;13.70;99.90
57434;DHT22;43277;52.672;6.984;2022-07-06T05:01:04;13.70;99.90
57434;DHT22;43277;52.672;6.984;2022-07-06T05:03:30;13.70;99.90
57434;DHT22;43277;52.672;6.984;2022-07-06T05:05:55;13.70;99.90
57434;DHT22;43277;52.672;6.984;2022-07-06T05:08:21;13.80;99.90
57434;DHT22;43277;52.672;6.984;2022-07-06T05:10:48;13.90;99.90
57434;DHT22;43277;52.672;6.984;2022-07-06T05:13:14;14.00;99.90
57434;DHT22;43277;52.672;6.984;2022-07-06T05:15:39;14.10;99.90
57434;DHT22;43277;52.672;6.984;2022-07-06T05:18:05;14.10;99.90
57434;DHT22;43277;52.672;6.984;2022-07-06T05:20:30;14.10;99.90
57434;DHT22;43277;52.672;6.984;2022-07-06T05:22:56;14.20;99.90
57434;DHT22;43277;52.672;6.984;2022-07-06T05:25:22;14.30;99.90
57434;DHT22;43277;52.672;6.984;2022-07-06T05:27:47;14.40;99.90
57434;DHT22;43277;52.672;6.984;2022-07-06T05:30:13;14.50;99.90
57434;DHT22;43277;52.672;6.984;2022-07-06T05:32:40;14.60;99.90
57434;DHT22;43277;52.672;6.984;2022-07-06T05:35:07;14.60;99.90
57434;DHT22;43277;52.672;6.984;2022-07-06T05:37:32;14.70;99.90
57434;DHT22;43277;52.672;6.984;2022-07-06T05:39:58;14.80;99.90
57434;DHT22;43277;52.672;6.984;2022-07-06T05:42:24;14.80;99.90
57434;DHT22;43277;52.672;6.984;2022-07-06T05:44:49;14.80;99.90
57434;DHT22;43277;52.672;6.984;2022-07-06T05:47:15;14.80;99.90
57434;DHT22;43277;52.672;6.984;2022-07-06T05:49:59;14.90;99.90
57434;DHT22;43277;52.672;6.984;2022-07-06T05:52:41;15.00;99.90
57434;DHT22;43277;52.672;6.984;2022-07-06T05:55:08;15.00;99.90
57434;DHT22;43277;52.672;6.984;2022-07-06T05:57:34;15.10;99.90
57434;DHT22;43277;52.672;6.984;2022-07-06T06:00:00;15.10;99.90
57434;DHT22;43277;52.672;6.984;2022-07-06T06:02:25;15.30;99.90
57434;DHT22;43277;52.672;6.984;2022-07-06T06:04:51;15.30;99.90
57434;DHT22;43277;52.672;6.984;2022-07-06T06:07:16;15.30;99.90
57434;DHT22;43277;52.672;6.984;2022-07-06T06:09:42;15.40;99.90
57434;DHT22;43277;52.672;6.984;2022-07-06T06:12:08;15.40;99.90
57434;DHT22;43277;52.672;6.984;2022-07-06T06:14:33;15.50;99.90
57434;DHT22;43277;52.672;6.984;2022-07-06T06:16:59;15.60;99.90
57434;DHT22;43277;52.672;6.984;2022-07-06T06:19:25;15.70;99.90
57434;DHT22;43277;52.672;6.984;2022-07-06T06:21:50;15.80;99.90
57434;DHT22;43277;52.672;6.984;2022-07-06T06:24:17;15.80;99.90
57434;DHT22;43277;52.672;6.984;2022-07-06T06:26:43;15.90;99.90
57434;DHT22;43277;52.672;6.984;2022-07-06T06:29:09;16.00;99.90
57434;DHT22;43277;52.672;6.984;2022-07-06T06:31:34;15.90;99.90
57434;DHT22;43277;52.672;6.984;2022-07-06T06:34:00;16.00;99.90
57434;DHT22;43277;52.672;6.984;2022-07-06T06:36:25;16.10;99.90
57434;DHT22;43277;52.672;6.984;2022-07-06T06:38:51;16.10;99.90
57434;DHT22;43277;52.672;6.984;2022-07-06T06:41:17;16.20;99.90
57434;DHT22;43277;52.672;6.984;2022-07-06T06:43:43;16.30;99.90
57434;DHT22;43277;52.672;6.984;2022-07-06T06:46:11;16.30;99.90
57434;DHT22;43277;52.672;6.984;2022-07-06T06:48:37;16.30;99.90
57434;DHT22;43277;52.672;6.984;2022-07-06T06:51:04;16.40;99.90
57434;DHT22;43277;52.672;6.984;2022-07-06T06:53:29;16.40;99.90
57434;DHT22;43277;52.672;6.984;2022-07-06T06:55:55;16.50;99.90
57434;DHT22;43277;52.672;6.984;2022-07-06T06:58:20;16.50;99.90
57434;DHT22;43277;52.672;6.984;2022-07-06T07:00:46;16.60;99.90
57434;DHT22;43277;52.672;6.984;2022-07-06T07:03:12;16.70;99.90
57434;DHT22;43277;52.672;6.984;2022-07-06T07:05:38;16.80;99.90
57434;DHT22;43277;52.672;6.984;2022-07-06T07:08:04;16.80;99.90
57434;DHT22;43277;52.672;6.984;2022-07-06T07:10:30;16.90;99.90
57434;DHT22;43277;52.672;6.984;2022-07-06T07:12:55;17.00;99.90
57434;DHT22;43277;52.672;6.984;2022-07-06T07:15:21;17.00;99.90
57434;DHT22;43277;52.672;6.984;2022-07-06T07:17:46;17.00;99.90
57434;DHT22;43277;52.672;6.984;2022-07-06T07:20:12;17.00;99.90
57434;DHT22;43277;52.672;6.984;2022-07-06T07:22:37;17.10;99.90
57434;DHT22;43277;52.672;6.984;2022-07-06T07:25:04;17.20;99.90
57434;DHT22;43277;52.672;6.984;2022-07-06T07:27:30;17.30;99.90
57434;DHT22;43277;52.672;6.984;2022-07-06T07:29:56;17.30;99.90
57434;DHT22;43277;52.672;6.984;2022-07-06T07:32:21;17.40;99.90
57434;DHT22;43277;52.672;6.984;2022-07-06T07:34:47;17.40;99.90
57434;DHT22;43277;52.672;6.984;2022-07-06T07:37:12;17.40;99.90
57434;DHT22;43277;52.672;6.984;2022-07-06T07:39:38;17.50;99.90
57434;DHT22;43277;52.672;6.984;2022-07-06T07:42:04;17.50;99.90
57434;DHT22;43277;52.672;6.984;2022-07-06T07:44:29;17.50;99.90
57434;DHT22;43277;52.672;6.984;2022-07-06T07:46:55;17.50;99.90
57434;DHT22;43277;52.672;6.984;2022-07-06T07:49:21;17.50;99.90
57434;DHT22;43277;52.672;6.984;2022-07-06T07:51:49;17.50;99.90
57434;DHT22;43277;52.672;6.984;2022-07-06T07:54:15;17.50;99.90
57434;DHT22;43277;52.672;6.984;2022-07-06T07:56:41;17.50;99.90
57434;DHT22;43277;52.672;6.984;2022-07-06T07:59:07;17.60;99.90
57434;DHT22;43277;52.672;6.984;2022-07-06T08:01:33;17.70;99.90
57434;DHT22;43277;52.672;6.984;2022-07-06T08:03:59;17.90;99.90
57434;DHT22;43277;52.672;6.984;2022-07-06T08:06:25;18.10;99.90
57434;DHT22;43277;52.672;6.984;2022-07-06T08:08:51;18.20;99.90
57434;DHT22;43277;52.672;6.984;2022-07-06T08:11:17;18.20;99.90
57434;DHT22;43277;52.672;6.984;2022-07-06T08:13:42;18.20;99.90
57434;DHT22;43277;52.672;6.984;2022-07-06T08:16:08;18.30;99.90
57434;DHT22;43277;52.672;6.984;2022-07-06T08:18:35;18.20;99.90
57434;DHT22;43277;52.672;6.984;2022-07-06T08:21:01;18.20;99.90
57434;DHT22;43277;52.672;6.984;2022-07-06T08:23:27;18.30;99.90
57434;DHT22;43277;52.672;6.984;2022-07-06T08:25:52;18.20;99.90
57434;DHT22;43277;52.672;6.984;2022-07-06T08:28:18;18.20;99.90
57434;DHT22;43277;52.672;6.984;2022-07-06T08:30:44;18.10;99.90
57434;DHT22;43277;52.672;6.984;2022-07-06T08:33:09;18.10;99.90
57434;DHT22;43277;52.672;6.984;2022-07-06T08:35:35;18.10;99.90
57434;DHT22;43277;52.672;6.984;2022-07-06T08:38:01;18.10;99.90
57434;DHT22;43277;52.672;6.984;2022-07-06T08:40:32;18.30;99.90
57434;DHT22;43277;52.672;6.984;2022-07-06T08:42:59;18.40;99.90
57434;DHT22;43277;52.672;6.984;2022-07-06T08:45:26;18.40;99.90
57434;DHT22;43277;52.672;6.984;2022-07-06T08:47:54;18.50;99.90
57434;DHT22;43277;52.672;6.984;2022-07-06T08:50:20;18.60;99.90
57434;DHT22;43277;52.672;6.984;2022-07-06T08:52:47;18.70;99.90
57434;DHT22;43277;52.672;6.984;2022-07-06T08:55:14;18.70;99.90
57434;DHT22;43277;52.672;6.984;2022-07-06T08:57:41;18.70;99.50
57434;DHT22;43277;52.672;6.984;2022-07-06T09:00:10;18.70;98.90
57434;DHT22;43277;52.672;6.984;2022-07-06T09:02:36;18.70;99.90
57434;DHT22;43277;52.672;6.984;2022-07-06T09:05:03;18.80;99.90
57434;DHT22;43277;52.672;6.984;2022-07-06T09:07:29;18.90;99.90
57434;DHT22;43277;52.672;6.984;2022-07-06T09:09:56;19.10;99.90
57434;DHT22;43277;52.672;6.984;2022-07-06T09:12:26;19.20;99.90
57434;DHT22;43277;52.672;6.984;2022-07-06T09:14:54;19.40;99.90
57434;DHT22;43277;52.672;6.984;2022-07-06T09:17:20;19.40;99.90
57434;DHT22;43277;52.672;6.984;2022-07-06T09:19:46;19.30;99.90
57434;DHT22;43277;52.672;6.984;2022-07-06T09:22:28;19.40;99.90
57434;DHT22;43277;52.672;6.984;2022-07-06T09:25:02;19.30;98.60
57434;DHT22;43277;52.672;6.984;2022-07-06T09:27:28;19.30;99.30
57434;DHT22;43277;52.672;6.984;2022-07-06T09:29:53;19.30;99.00
57434;DHT22;43277;52.672;6.984;2022-07-06T09:32:22;19.20;99.90
57434;DHT22;43277;52.672;6.984;2022-07-06T09:34:47;19.20;99.90
57434;DHT22;43277;52.672;6.984;2022-07-06T09:37:14;19.40;99.90
57434;DHT22;43277;52.672;6.984;2022-07-06T09:39:40;19.60;99.90
57434;DHT22;43277;52.672;6.984;2022-07-06T09:42:07;19.80;99.90
57434;DHT22;43277;52.672;6.984;2022-07-06T09:44:37;19.80;99.90
57434;DHT22;43277;52.672;6.984;2022-07-06T09:47:06;20.00;99.90
57434;DHT22;43277;52.672;6.984;2022-07-06T09:49:32;20.10;99.90
57434;DHT22;43277;52.672;6.984;2022-07-06T09:52:00;20.20;99.90
57434;DHT22;43277;52.672;6.984;2022-07-06T09:54:26;20.30;99.90
57434;DHT22;43277;52.672;6.984;2022-07-06T09:56:52;20.60;99.90
57434;DHT22;43277;52.672;6.984;2022-07-06T09:59:20;20.80;99.90
57434;DHT22;43277;52.672;6.984;2022-07-06T10:01:49;20.80;99.90
57434;DHT22;43277;52.672;6.984;2022-07-06T10:04:16;20.80;99.50
57434;DHT22;43277;52.672;6.984;2022-07-06T10:06:44;20.80;96.00
57434;DHT22;43277;52.672;6.984;2022-07-06T10:09:11;20.80;97.10
57434;DHT22;43277;52.672;6.984;2022-07-06T10:11:43;21.10;99.10
57434;DHT22;43277;52.672;6.984;2022-07-06T10:14:10;21.40;99.80
57434;DHT22;43277;52.672;6.984;2022-07-06T10:16:38;21.40;99.90
57434;DHT22;43277;52.672;6.984;2022-07-06T10:19:09;21.50;99.90
57434;DHT22;43277;52.672;6.984;2022-07-06T10:21:39;21.50;97.60
57434;DHT22;43277;52.672;6.984;2022-07-06T10:24:07;21.40;98.70
57434;DHT22;43277;52.672;6.984;2022-07-06T10:26:34;21.30;97.10
57434;DHT22;43277;52.672;6.984;2022-07-06T10:29:01;21.40;98.90
57434;DHT22;43277;52.672;6.984;2022-07-06T10:31:28;21.80;96.70
57434;DHT22;43277;52.672;6.984;2022-07-06T10:33:56;22.10;97.10
57434;DHT22;43277;52.672;6.984;2022-07-06T10:36:22;22.40;92.10
57434;DHT22;43277;52.672;6.984;2022-07-06T10:38:50;22.40;86.50
57434;DHT22;43277;52.672;6.984;2022-07-06T10:41:16;22.20;88.70
57434;DHT22;43277;52.672;6.984;2022-07-06T10:43:44;22.00;90.80
57434;DHT22;43277;52.672;6.984;2022-07-06T10:48:47;21.80;93.60
57434;DHT22;43277;52.672;6.984;2022-07-06T10:51:26;21.80;97.20
57434;DHT22;43277;52.672;6.984;2022-07-06T10:53:56;21.70;94.10
57434;DHT22;43277;52.672;6.984;2022-07-06T10:56:38;21.50;90.90
57434;DHT22;43277;52.672;6.984;2022-07-06T10:59:14;21.50;88.90
57434;DHT22;43277;52.672;6.984;2022-07-06T11:01:40;21.50;87.90
57434;DHT22;43277;52.672;6.984;2022-07-06T11:04:08;21.70;93.20
57434;DHT22;43277;52.672;6.984;2022-07-06T11:06:35;21.90;92.40
57434;DHT22;43277;52.672;6.984;2022-07-06T11:09:10;22.00;91.90
57434;DHT22;43277;52.672;6.984;2022-07-06T11:14:05;22.30;89.90
57434;DHT22;43277;52.672;6.984;2022-07-06T11:16:38;22.40;84.40
57434;DHT22;43277;52.672;6.984;2022-07-06T11:19:10;22.40;86.60
57434;DHT22;43277;52.672;6.984;2022-07-06T11:21:46;22.50;80.00
57434;DHT22;43277;52.672;6.984;2022-07-06T11:24:15;22.50;88.00
57434;DHT22;43277;52.672;6.984;2022-07-06T11:26:43;22.40;86.80
57434;DHT22;43277;52.672;6.984;2022-07-06T11:29:10;22.40;85.00
57434;DHT22;43277;52.672;6.984;2022-07-06T11:31:38;22.40;79.80
57434;DHT22;43277;52.672;6.984;2022-07-06T11:34:05;22.30;92.70
57434;DHT22;43277;52.672;6.984;2022-07-06T11:36:31;22.40;92.30
57434;DHT22;43277;52.672;6.984;2022-07-06T11:38:57;22.70;82.70
57434;DHT22;43277;52.672;6.984;2022-07-06T11:41:23;22.70;80.00
57434;DHT22;43277;52.672;6.984;2022-07-06T11:43:49;22.70;85.40
57434;DHT22;43277;52.672;6.984;2022-07-06T11:46:30;22.80;91.50
57434;DHT22;43277;52.672;6.984;2022-07-06T11:49:02;22.90;91.20
57434;DHT22;43277;52.672;6.984;2022-07-06T11:51:30;23.00;92.20
57434;DHT22;43277;52.672;6.984;2022-07-06T11:53:58;23.10;94.20
57434;DHT22;43277;52.672;6.984;2022-07-06T11:56:25;23.10;86.30
57434;DHT22;43277;52.672;6.984;2022-07-06T11:58:55;23.00;75.90
57434;DHT22;43277;52.672;6.984;2022-07-06T12:01:22;22.80;74.60
57434;DHT22;43277;52.672;6.984;2022-07-06T12:03:52;22.60;77.40
57434;DHT22;43277;52.672;6.984;2022-07-06T12:06:21;22.40;73.90
57434;DHT22;43277;52.672;6.984;2022-07-06T12:08:58;22.10;88.10
57434;DHT22;43277;52.672;6.984;2022-07-06T12:11:28;22.00;82.10
57434;DHT22;43277;52.672;6.984;2022-07-06T12:13:58;21.70;92.20
57434;DHT22;43277;52.672;6.984;2022-07-06T12:16:35;21.50;90.60
57434;DHT22;43277;52.672;6.984;2022-07-06T12:19:02;21.50;90.30
57434;DHT22;43277;52.672;6.984;2022-07-06T12:21:29;21.80;94.40
57434;DHT22;43277;52.672;6.984;2022-07-06T12:23:55;22.30;92.20
57434;DHT22;43277;52.672;6.984;2022-07-06T12:26:23;22.80;90.70
57434;DHT22;43277;52.672;6.984;2022-07-06T12:29:09;23.30;84.30
57434;DHT22;43277;52.672;6.984;2022-07-06T12:31:38;23.30;79.40
57434;DHT22;43277;52.672;6.984;2022-07-06T12:34:05;23.10;81.60
57434;DHT22;43277;52.672;6.984;2022-07-06T12:36:51;22.80;83.00
57434;DHT22;43277;52.672;6.984;2022-07-06T12:39:19;22.70;79.90
57434;DHT22;43277;52.672;6.984;2022-07-06T12:41:50;22.50;78.20
57434;DHT22;43277;52.672;6.984;2022-07-06T12:44:18;22.30;79.20
57434;DHT22;43277;52.672;6.984;2022-07-06T12:46:44;22.00;90.20
57434;DHT22;43277;52.672;6.984;2022-07-06T12:49:22;21.90;88.70
57434;DHT22;43277;52.672;6.984;2022-07-06T12:51:52;21.70;88.50
57434;DHT22;43277;52.672;6.984;2022-07-06T12:54:19;21.60;82.90
57434;DHT22;43277;52.672;6.984;2022-07-06T12:57:10;21.40;91.20
57434;DHT22;43277;52.672;6.984;2022-07-06T12:59:43;21.20;90.70
57434;DHT22;43277;52.672;6.984;2022-07-06T13:02:17;21.10;92.50
57434;DHT22;43277;52.672;6.984;2022-07-06T13:04:42;21.10;90.00
57434;DHT22;43277;52.672;6.984;2022-07-06T13:07:18;21.00;92.20
57434;DHT22;43277;52.672;6.984;2022-07-06T13:09:46;20.90;90.20
57434;DHT22;43277;52.672;6.984;2022-07-06T13:12:12;20.80;90.30
57434;DHT22;43277;52.672;6.984;2022-07-06T13:14:38;20.80;92.10
57434;DHT22;43277;52.672;6.984;2022-07-06T13:17:03;20.70;94.80
57434;DHT22;43277;52.672;6.984;2022-07-06T13:19:29;20.80;96.90
57434;DHT22;43277;52.672;6.984;2022-07-06T13:21:55;20.90;91.70
57434;DHT22;43277;52.672;6.984;2022-07-06T13:24:20;21.10;90.80
57434;DHT22;43277;52.672;6.984;2022-07-06T13:26:46;21.10;88.70
57434;DHT22;43277;52.672;6.984;2022-07-06T13:29:12;21.40;87.30
57434;DHT22;43277;52.672;6.984;2022-07-06T13:31:39;21.30;89.30
57434;DHT22;43277;52.672;6.984;2022-07-06T13:34:05;21.40;93.20
57434;DHT22;43277;52.672;6.984;2022-07-06T13:36:31;21.60;88.90
57434;DHT22;43277;52.672;6.984;2022-07-06T13:38:57;21.70;90.00
57434;DHT22;43277;52.672;6.984;2022-07-06T13:41:23;21.80;88.30
57434;DHT22;43277;52.672;6.984;2022-07-06T13:43:48;21.80;83.50
57434;DHT22;43277;52.672;6.984;2022-07-06T13:46:15;21.60;84.00
57434;DHT22;43277;52.672;6.984;2022-07-06T13:48:42;21.60;86.80
57434;DHT22;43277;52.672;6.984;2022-07-06T13:51:07;21.50;88.10
57434;DHT22;43277;52.672;6.984;2022-07-06T13:53:33;21.50;91.30
57434;DHT22;43277;52.672;6.984;2022-07-06T13:55:59;21.70;90.40
57434;DHT22;43277;52.672;6.984;2022-07-06T13:58:25;21.90;86.20
57434;DHT22;43277;52.672;6.984;2022-07-06T14:00:50;21.90;83.70
57434;DHT22;43277;52.672;6.984;2022-07-06T14:03:16;21.70;82.90
57434;DHT22;43277;52.672;6.984;2022-07-06T14:05:41;21.60;85.40
57434;DHT22;43277;52.672;6.984;2022-07-06T14:08:07;21.70;85.40
57434;DHT22;43277;52.672;6.984;2022-07-06T14:10:33;21.60;87.80
57434;DHT22;43277;52.672;6.984;2022-07-06T14:12:59;21.60;87.00
57434;DHT22;43277;52.672;6.984;2022-07-06T14:15:25;21.70;89.70
57434;DHT22;43277;52.672;6.984;2022-07-06T14:17:51;21.70;95.10
57434;DHT22;43277;52.672;6.984;2022-07-06T14:20:17;21.80;92.60
57434;DHT22;43277;52.672;6.984;2022-07-06T14:22:44;21.80;89.40
57434;DHT22;43277;52.672;6.984;2022-07-06T14:25:09;21.50;83.40
57434;DHT22;43277;52.672;6.984;2022-07-06T14:27:35;21.50;84.00
57434;DHT22;43277;52.672;6.984;2022-07-06T14:30:02;21.40;83.40
57434;DHT22;43277;52.672;6.984;2022-07-06T14:32:28;21.20;84.50
57434;DHT22;43277;52.672;6.984;2022-07-06T14:34:54;21.10;85.10
57434;DHT22;43277;52.672;6.984;2022-07-06T14:37:19;21.10;87.50
57434;DHT22;43277;52.672;6.984;2022-07-06T14:39:45;21.10;86.50
57434;DHT22;43277;52.672;6.984;2022-07-06T14:42:12;21.10;85.40
57434;DHT22;43277;52.672;6.984;2022-07-06T14:44:37;20.80;91.30
57434;DHT22;43277;52.672;6.984;2022-07-06T14:47:03;20.70;93.20
57434;DHT22;43277;52.672;6.984;2022-07-06T14:49:30;20.70;90.40
57434;DHT22;43277;52.672;6.984;2022-07-06T14:51:56;20.60;86.60
57434;DHT22;43277;52.672;6.984;2022-07-06T14:54:25;20.50;86.60
57434;DHT22;43277;52.672;6.984;2022-07-06T14:56:51;20.50;85.80
57434;DHT22;43277;52.672;6.984;2022-07-06T14:59:17;20.50;86.90
57434;DHT22;43277;52.672;6.984;2022-07-06T15:01:43;20.40;88.00
57434;DHT22;43277;52.672;6.984;2022-07-06T15:04:09;20.40;88.30
57434;DHT22;43277;52.672;6.984;2022-07-06T15:06:35;20.40;87.60
57434;DHT22;43277;52.672;6.984;2022-07-06T15:09:01;20.30;87.40
57434;DHT22;43277;52.672;6.984;2022-07-06T15:11:30;20.30;86.40
57434;DHT22;43277;52.672;6.984;2022-07-06T15:13:56;20.40;86.60
57434;DHT22;43277;52.672;6.984;2022-07-06T15:16:21;20.30;89.90
57434;DHT22;43277;52.672;6.984;2022-07-06T15:18:47;20.30;88.10
57434;DHT22;43277;52.672;6.984;2022-07-06T15:21:12;20.20;87.80
57434;DHT22;43277;52.672;6.984;2022-07-06T15:23:38;20.20;91.60
57434;DHT22;43277;52.672;6.984;2022-07-06T15:26:04;20.20;90.00
57434;DHT22;43277;52.672;6.984;2022-07-06T15:28:30;20.20;89.10
57434;DHT22;43277;52.672;6.984;2022-07-06T15:30:56;20.20;90.00
57434;DHT22;43277;52.672;6.984;2022-07-06T15:33:21;20.20;90.00